Stunt Ranch Reserve, Santa Monica Mtns, California Weather observations

Data are for 10 minute period ending at time listed.
 Day   Time   Solar   Ave.   Ave.  Ave.  Vector  Max.   Baro.   Total    
  of    of     Rad.   Air    Rel.  Wind   Wind   Wind  Press.  Precip.   
Year   Day            Temp.  Hum.  Speed  Dir.   Gust                    
2015   (PST)  Kw/m2    F      %     mph   deg.    mph    mb.     in.     
-------------------------------------------------------------------------
 108    8:10   0.52   70.5    23    4.0   285     6.1   969.9    0.00 
 108    8:20   0.55   71.9    22    2.7   288     5.0   969.9    0.00 
 108    8:30   0.58   72.4    22    2.8   281     4.8   969.5    0.00 
 108    8:40   0.62   73.2    21    2.0   289     4.2   969.5    0.00 
 108    8:50   0.65   73.7    21    2.4   298     4.7   969.5    0.00 
 108    9:00   0.68   74.7    20    3.0   288     5.2   969.5    0.00 
 108    9:10   0.70   76.1    20    3.0   284     6.8   969.5    0.00 
 108    9:20   0.73   76.9    20    3.6   288     6.9   969.5    0.00 
 108    9:30   0.76   77.7    20    3.5   287     6.8   969.5    0.00 
 108    9:40   0.78   79.5    20    3.2   289     6.5   969.5    0.00 
 108    9:50   0.80   80.1    22    3.7   281     7.2   969.5    0.00 
 108   10:00   0.82   79.8    24    3.9   297     7.7   969.5    0.00 
 108   10:10   0.84   79.2    24    3.5   297     7.6   969.5    0.00 
 108   10:20   0.86   80.0    24    4.2   294     7.7   969.5    0.00 
 108   10:30   0.87   80.2    24    3.7   291     7.7   969.5    0.00 
 108   10:40   0.89   81.0    23    4.2   286     9.1   969.5    0.00 
 108   10:50   0.90   81.7    22    3.9   293     8.6   969.5    0.00 
 108   11:00   0.91   82.3    22    3.0   294     8.3   969.5    0.00 
 108   11:10   0.93   81.4    24    5.0   314     9.3   969.2    0.00 
 108   11:20   0.94   81.8    22    3.7   298     8.8   969.2    0.00 
 108   11:30   0.94   82.3    20    3.6   294     8.3   968.8    0.00 
 108   11:40   0.94   83.0    18    3.7   289     8.3   968.8    0.00 
 108   11:50   0.95   83.4    17    3.9   296    10.9   968.8    0.00 
 108   12:00   0.95   83.6    16    3.9   292    11.5   968.5    0.00 
 108   12:10   0.95   83.7    17    4.2   296    11.2   968.5    0.00 
 108   12:20   0.94   83.8    18    4.0   298     9.6   968.5    0.00 
 108   12:30   0.94   83.4    18    3.7   290    10.9   968.2    0.00 
 108   12:40   0.93   83.6    18    4.3   294    10.4   968.2    0.00 
 108   12:50   0.92   84.0    17    3.5   291     9.3   968.2    0.00 
 108   13:00   0.86   84.4    17    2.2   281     8.3   968.2    0.00 
 108   13:10   0.89   83.2    18    2.6   267     9.7   968.2    0.00 
 108   13:20   0.88   85.0    16    1.8   323     7.2   968.2    0.00 
 108   13:30   0.86   85.3    16    1.3   291     6.1   968.2    0.00 
 108   13:40   0.84   85.1    16    3.0   303    10.5   968.2    0.00 
 108   13:50   0.83   85.3    16    2.1   286    11.7   968.2    0.00 
 108   14:00   0.81   85.6    16    2.2   301     8.4   967.8    0.00 
 108   14:10   0.79   84.6    16    3.4   288    10.7   967.8    0.00 
 108   14:20   0.76   84.6    16    2.7   291    10.2   967.8    0.00 
 108   14:30   0.74   85.3    16    3.4   284    11.0   967.5    0.00 
 108   14:40   0.71   84.9    17    2.0   303     8.8   967.5    0.00 
 108   14:50   0.68   84.3    17    3.0   295     8.6   967.5    0.00 
 108   15:00   0.65   83.8    18    2.1   290     7.6   967.5    0.00 
 108   15:10   0.62   83.0    18    2.7   291     6.4   967.5    0.00 
 108   15:20   0.59   82.0    19    4.4   265    12.3   967.5    0.00 
 108   15:30   0.56   80.9    22    2.6   295     7.6   967.2    0.00 
 108   15:40   0.53   80.7    21    2.7   299     7.0   967.2    0.00 
 108   15:50   0.49   80.7    21    2.4   304     7.0   967.2    0.00 
 108   16:00   0.46   80.6    21    2.3   310     7.7   967.2    0.00 
 108   16:10   0.42   82.0    22    2.1   300     6.6   966.8    0.00 
 108   16:20   0.39   80.8    28    3.8   314     9.0   966.8    0.00 
 108   16:30   0.35   79.3    30    3.1   315     7.8   966.8    0.00 
 108   16:40   0.32   79.1    30    2.4   289     7.8   966.8    0.00 
 108   16:50   0.28   79.3    29    1.9   300     6.1   966.8    0.00 
 108   17:00   0.24   79.3    28    2.1   296     5.9   966.8    0.00 
 108   17:10   0.21   78.8    29    2.3   290     6.9   966.8    0.00 
 108   17:20   0.18   77.5    32    1.9   292     6.0   966.5    0.00 
 108   17:30   0.14   75.1    35    1.9   293     5.4   966.5    0.00 
 108   17:40   0.11   72.8    38    2.4   281     4.7   966.5    0.00 
 108   17:50   0.06   71.3    40    1.0   289     3.4   966.5    0.00 
 108   18:00   0.03   70.0    42    0.6   270     1.8   966.5    0.00 
 108   18:10   0.02   69.0    42    1.0   269     1.9   966.5    0.00 
 108   18:20   0.01   68.1    43    0.3   268     0.9   966.8    0.00 
 108   18:30   0.01   67.2    44    0.8   300     4.2   967.2    0.00 
 108   18:40   0.00   66.2    40    2.2   257     5.6   967.2    0.00 
 108   18:50   0.00   64.6    41    1.8   255     4.0   967.2    0.00 
 108   19:00   0.00   63.9    42    1.9   232     3.4   967.2    0.00 
 108   19:10   0.00   63.5    42    2.3   235     3.2   967.5    0.00 
 108   19:20   0.00   62.9    43    2.2   229     3.6   967.5    0.00 
 108   19:30   0.00   62.0    44    1.2   240     1.8   967.5    0.00 
 108   19:40   0.00   61.8    44    1.2   245     2.3   967.5    0.00 
 108   19:50   0.00   61.2    45    1.0   307     2.0   967.8    0.00 
 108   20:00   0.00   60.6    46    0.4   296     2.0   967.8    0.00 
 108   20:10   0.00   60.2    47    0.5   319     1.9   968.2    0.00 
 108   20:20   0.00   59.8    48    1.5   174     2.7   968.2    0.00 
 108   20:30   0.00   59.6    48    0.4   257     1.5   968.2    0.00 
 108   20:40   0.00   59.3    47    0.4   166     1.5   968.2    0.00 
 108   20:50   0.00   59.5    46    0.6   239     1.7   968.2    0.00 
 108   21:00   0.00   59.5    48    1.1   258     1.7   968.2    0.00 
 108   21:10   0.00   59.0    48    0.2   298     1.1   968.2    0.00 
 108   21:20   0.00   58.9    48    0.2   290     0.9   968.2    0.00 
 108   21:30   0.00   58.7    48    0.2   249     0.9   968.2    0.00 
 108   21:40   0.00   58.4    48    1.1   155     2.0   968.2    0.00 
 108   21:50   0.00   58.8    48    0.4   154     1.4   968.2    0.00 
 108   22:00   0.00   59.2    49    0.5   218     1.6   968.2    0.00 
 108   22:10   0.00   59.1    48    1.5   269     2.5   968.2    0.00 
 108   22:20   0.00   59.1    46    0.3   290     1.1   968.2    0.00 
 108   22:30   0.00   58.4    46    1.9   274     2.5   968.2    0.00 
 108   22:40   0.00   57.6    46    0.4   270     1.5   968.2    0.00 
 108   22:50   0.00   57.1    47    0.7   274     1.4   968.2    0.00 
 108   23:00   0.00   56.9    48    1.3    98     2.7   968.2    0.00 
 108   23:10   0.00   57.1    46    1.0   212     2.8   968.2    0.00 
 108   23:20   0.00   57.1    45    0.5   195     2.0   968.2    0.00 
 108   23:30   0.00   57.6    43    0.3   227     1.8   968.2    0.00 
 108   23:40   0.00   57.2    44    0.1   281     0.9   968.2    0.00 
 108   23:50   0.00   57.2    44    0.6   355     1.4   968.2    0.00 
 109    0:00   0.00   56.8    44    0.3   241     1.1   968.2    0.00 
 109    0:10   0.00   56.2    45    1.0   280     2.1   968.2    0.00 
 109    0:20   0.00   55.1    47    0.7    30     2.6   968.2    0.00 
 109    0:30   0.00   55.5    46    0.4   104     2.3   967.8    0.00 
 109    0:40   0.00   55.9    45    0.1   309     0.7   967.8    0.00 
 109    0:50   0.00   55.6    46    0.1   149     1.1   967.8    0.00 
 109    1:00   0.00   55.2    47    0.7   284     1.2   967.8    0.00 
 109    1:10   0.00   55.3    46    0.0     0     0.0   967.8    0.00 
 109    1:20   0.00   55.5    46    0.7   254     1.8   967.8    0.00 
 109    1:30   0.00   54.9    47    0.3   315     1.1   967.5    0.00 
 109    1:40   0.00   55.5    46    0.2   328     1.0   967.5    0.00 
 109    1:50   0.00   55.8    45    0.1   280     0.7   967.5    0.00 
 109    2:00   0.00   55.8    46    0.1   300     1.4   967.5    0.00 
 109    2:10   0.00   54.9    48    0.6   268     1.7   967.2    0.00 
 109    2:20   0.00   55.0    48    0.1   131     1.3   967.2    0.00 
 109    2:30   0.00   54.8    48    0.5   309     1.4   967.2    0.00 
 109    2:40   0.00   54.7    48    0.1     9     1.0   967.2    0.00 
 109    2:50   0.00   54.5    48    0.3    40     1.1   966.8    0.00 
 109    3:00   0.00   55.0    47    0.5   202     2.0   966.8    0.00 
 109    3:10   0.00   55.3    47    1.7   274     2.7   966.8    0.00 
 109    3:20   0.00   54.5    48    0.9   266     2.1   966.8    0.00 
 109    3:30   0.00   54.7    47    0.3   157     1.5   966.8    0.00 
 109    3:40   0.00   54.6    47    0.5   210     1.2   966.8    0.00 
 109    3:50   0.00   54.7    47    0.6   292     1.2   966.8    0.00 
 109    4:00   0.00   54.8    47    1.2   237     2.6   966.8    0.00 
 109    4:10   0.00   54.5    47    0.0   246     0.1   966.8    0.00 
 109    4:20   0.00   54.1    49    0.4   334     1.0   966.8    0.00 
 109    4:30   0.00   53.2    50    0.6   275     1.5   966.8    0.00 
 109    4:40   0.00   53.4    50    0.3   212     1.1   966.8    0.00 
 109    4:50   0.00   53.9    49    0.3   144     1.3   967.2    0.00 
 109    5:00   0.00   54.2    48    0.1   246     1.2   967.2    0.00 
 109    5:10   0.00   54.1    49    1.3   281     2.0   967.2    0.00 
 109    5:20   0.01   53.7    50    1.0   289     2.1   967.5    0.00 
 109    5:30   0.01   52.7    52    0.4   270     1.8   967.8    0.00 
 109    5:40   0.01   52.2    53    0.6   147     1.4   967.8    0.00 
 109    5:50   0.03   52.4    52    0.6   114     2.0   967.8    0.00 
 109    6:00   0.03   52.6    52    1.0   236     2.1   967.8    0.00 
 109    6:10   0.03   52.2    54    1.4   289     2.0   967.8    0.00 
 109    6:20   0.09   52.0    56    0.8   277     1.8   967.8    0.00 
 109    6:30   0.17   55.8    49    0.1    70     0.9   967.8    0.00 
 109    6:40   0.20   59.1    46    0.4   229     1.9   968.2    0.00 
 109    6:50   0.24   60.8    48    1.6   283     2.9   968.2    0.00 
 109    7:00   0.27   60.4    50    0.6   317     1.5   968.5    0.00 
 109    7:10   0.31   61.6    46    0.3    14     1.9   968.5    0.00 
 109    7:20   0.35   62.9    45    0.8   323     2.2   968.5    0.00 
 109    7:30   0.38   63.5    47    0.7   300     2.3   968.5    0.00 
 109    7:40   0.42   65.2    46    2.3   288     3.6   968.5    0.00 
 109    7:50   0.45   67.0    43    3.3   282     5.0   968.5    0.00 
 109    8:00   0.49   66.6    44    2.6   288     5.0   968.5    0.00 

Return to Stunt Ranch Reserve graphs page.


Western Regional Climate Center,wrcc@dri.edu